Time;durP1;ratioP1;P1;durP2;ratioP2;P2;SDS_P1;SDS_P2;PMS_P1;PMS_P2;Temp;Humidity;BMP_temperature;BMP_pressure;BME280_temperature;BME280_humidity;BME280_pressure;Samples;Min_cycle;Max_cycle;Signal;HPM_P1;HPM_P2
2024/01/28 00:14:21;;;;;;;10.70;10.40;;;-0.60;99.90;;;;;;6219377;23;20205;-89
2024/01/28 00:17:27;;;;;;;10.47;10.17;;;-0.60;99.90;;;;;;6233343;23;20201;-86
2024/01/28 00:20:05;;;;;;;10.50;10.20;;;-0.60;99.90;;;;;;6232617;23;20195;-86
2024/01/28 00:22:38;;;;;;;10.47;10.17;;;-0.70;99.90;;;;;;6233214;23;20194;-87
2024/01/28 00:25:48;;;;;;;10.60;10.30;;;-0.70;99.90;;;;;;6231453;23;20215;-87
2024/01/28 00:28:32;;;;;;;10.60;10.30;;;-0.70;99.90;;;;;;6232117;22;20214;-86
2024/01/28 00:31:14;;;;;;;10.63;10.33;;;-0.80;99.90;;;;;;6231471;23;20946;-86
2024/01/28 00:40:38;;;;;;;10.63;10.33;;;-0.80;99.90;;;;;;5840168;23;20211;-88
2024/01/28 00:43:16;;;;;;;11.10;10.70;;;-0.90;99.90;;;;;;6061806;23;20215;-89
2024/01/28 00:46:28;;;;;;;;;;;;;;;;;;;;;
2024/01/28 01:01:04;;;;;;;11.00;10.60;;;-1.10;99.90;;;;;;6153786;23;20195;-88
2024/01/28 01:07:00;;;;;;;11.03;10.63;;;-1.10;99.90;;;;;;6150179;23;20220;-88
2024/01/28 01:09:30;;;;;;;11.23;10.83;;;-1.30;99.90;;;;;;6143621;23;20214;-87
2024/01/28 01:12:04;;;;;;;11.03;10.63;;;-1.30;99.90;;;;;;6143105;23;20200;-87
2024/01/28 01:20:45;;;;;;;10.53;10.23;;;-1.40;99.90;;;;;;6142656;23;20195;-89
2024/01/28 01:23:50;;;;;;;11.40;11.00;;;-1.40;99.90;;;;;;6143753;23;20230;-90
2024/01/28 01:32:17;;;;;;;10.87;10.47;;;-1.50;99.90;;;;;;6059456;23;20221;-86
2024/01/28 01:39:19;;;;;;;11.40;11.00;;;-1.50;99.90;;;;;;6039873;23;20217;-88
2024/01/28 01:52:50;;;;;;;10.97;10.57;;;-1.40;99.90;;;;;;5950879;23;20202;-86
2024/01/28 01:55:25;;;;;;;11.30;10.90;;;-1.50;99.90;;;;;;6121721;23;20205;-87
2024/01/28 02:04:09;;;;;;;10.67;10.37;;;-1.50;99.90;;;;;;6060302;23;20195;-90
2024/01/28 02:10:41;;;;;;;10.50;10.20;;;-1.40;99.90;;;;;;6056849;23;20265;-87
2024/01/28 02:14:33;;;;;;;;;;;;;;;;;;;;;
2024/01/28 02:20:28;;;;;;;11.13;10.73;;;-1.50;99.90;;;;;;6056845;23;20234;-88
2024/01/28 04:01:48;;;;;;;;;;;;;;;;;;;;;
2024/01/28 04:24:12;;;;;;;10.70;10.40;;;-2.20;99.90;;;;;;5995676;23;20231;-89
2024/01/28 05:40:02;;;;;;;;;;;;;;;;;;;;;
2024/01/28 05:57:04;;;;;;;10.57;10.27;;;-2.70;99.90;;;;;;6153634;23;20235;-88
2024/01/28 05:59:31;;;;;;;10.60;10.30;;;-2.70;99.90;;;;;;6261594;22;20228;-82
2024/01/28 06:01:58;;;;;;;10.93;10.57;;;-2.70;99.90;;;;;;6294607;22;20190;-82
2024/01/28 06:04:25;;;;;;;11.20;10.80;;;-2.60;99.90;;;;;;6294548;22;20271;-82
2024/01/28 06:06:53;;;;;;;11.10;10.70;;;-2.70;99.90;;;;;;6294342;22;20200;-82
2024/01/28 06:09:20;;;;;;;10.83;10.47;;;-2.70;99.90;;;;;;6293550;22;20209;-82
2024/01/28 06:11:50;;;;;;;10.87;10.53;;;-2.70;99.90;;;;;;6294093;22;20225;-83
2024/01/28 06:14:17;;;;;;;11.17;10.77;;;-2.70;99.90;;;;;;6298692;22;20202;-82
2024/01/28 06:16:44;;;;;;;10.67;10.37;;;-2.70;99.90;;;;;;6298731;22;20190;-81
2024/01/28 06:19:12;;;;;;;10.63;10.33;;;-2.70;99.90;;;;;;6296944;22;20212;-82
2024/01/28 06:21:39;;;;;;;11.20;10.80;;;-2.70;99.90;;;;;;6293821;22;20196;-82
2024/01/28 06:24:09;;;;;;;11.10;10.70;;;-2.70;99.90;;;;;;6294406;22;20196;-82
2024/01/28 06:26:38;;;;;;;10.63;10.33;;;-2.70;99.90;;;;;;6294825;22;20193;-82
2024/01/28 06:29:08;;;;;;;10.80;10.50;;;-2.70;99.90;;;;;;6294080;22;20208;-82
2024/01/28 06:31:35;;;;;;;10.77;10.47;;;-2.70;99.90;;;;;;6293915;22;20201;-82
2024/01/28 06:34:02;;;;;;;10.63;10.33;;;-2.70;99.90;;;;;;6294614;22;20256;-82
2024/01/28 06:36:30;;;;;;;10.53;10.23;;;-2.70;99.90;;;;;;6294581;22;20190;-82
2024/01/28 06:38:57;;;;;;;10.30;10.00;;;-2.60;99.90;;;;;;6294172;22;20255;-82
2024/01/28 06:41:25;;;;;;;10.67;10.37;;;-2.60;99.90;;;;;;6294394;22;20198;-83
2024/01/28 06:43:52;;;;;;;10.60;10.30;;;-2.70;99.90;;;;;;6293991;22;20194;-82
2024/01/28 06:46:21;;;;;;;10.63;10.33;;;-2.70;99.90;;;;;;6294669;22;20285;-82
2024/01/28 06:48:48;;;;;;;10.70;10.40;;;-2.60;99.90;;;;;;6302143;22;20195;-82
2024/01/28 06:51:15;;;;;;;10.60;10.30;;;-2.60;99.90;;;;;;6306341;22;20248;-82
2024/01/28 06:53:47;;;;;;;10.50;10.20;;;-2.60;99.90;;;;;;6300634;22;20252;-82
2024/01/28 06:56:15;;;;;;;10.70;10.40;;;-2.60;99.90;;;;;;6296159;22;20206;-82
2024/01/28 06:58:43;;;;;;;10.50;10.20;;;-2.60;99.90;;;;;;6297567;22;20217;-82
2024/01/28 07:01:11;;;;;;;10.43;10.13;;;-2.60;99.90;;;;;;6326703;22;20197;-82
2024/01/28 07:03:40;;;;;;;10.43;10.13;;;-2.60;99.90;;;;;;6327228;22;20222;-83
2024/01/28 07:06:08;;;;;;;10.60;10.30;;;-2.60;99.90;;;;;;6325654;22;20199;-82
2024/01/28 07:08:35;;;;;;;10.70;10.40;;;-2.60;99.90;;;;;;6325963;22;20201;-81
2024/01/28 07:11:04;;;;;;;10.67;10.37;;;-2.60;99.90;;;;;;6325225;22;20208;-81
2024/01/28 07:13:31;;;;;;;10.43;10.13;;;-2.60;99.90;;;;;;6328256;22;20201;-81
2024/01/28 07:15:58;;;;;;;9.90;9.60;;;-2.60;99.90;;;;;;6332456;22;20203;-81
2024/01/28 07:18:26;;;;;;;10.47;10.17;;;-2.50;99.90;;;;;;6332401;22;20201;-82
2024/01/28 07:20:55;;;;;;;10.50;10.20;;;-2.50;99.90;;;;;;6330701;22;20197;-81
2024/01/28 07:23:23;;;;;;;10.47;10.17;;;-2.50;99.90;;;;;;6329792;22;20189;-82
2024/01/28 07:25:50;;;;;;;10.57;10.27;;;-2.50;99.90;;;;;;6329015;22;20221;-81
2024/01/28 07:28:17;;;;;;;10.43;10.13;;;-2.40;99.90;;;;;;6328123;22;20197;-81
2024/01/28 07:30:45;;;;;;;10.53;10.23;;;-2.40;99.90;;;;;;6328033;22;20244;-82
2024/01/28 07:33:15;;;;;;;10.80;10.50;;;-2.40;99.90;;;;;;6327077;22;20212;-82
2024/01/28 07:35:43;;;;;;;10.80;10.50;;;-2.40;99.90;;;;;;6326520;22;20253;-81
2024/01/28 07:38:12;;;;;;;10.83;10.53;;;-2.30;99.90;;;;;;6325208;22;20246;-82
2024/01/28 07:40:39;;;;;;;10.80;10.50;;;-2.30;99.90;;;;;;6325548;22;20200;-81
2024/01/28 07:43:06;;;;;;;10.47;10.17;;;-2.30;99.90;;;;;;6324361;22;20276;-81
2024/01/28 07:45:37;;;;;;;10.77;10.47;;;-2.30;99.90;;;;;;6332240;22;20224;-81
2024/01/28 07:48:05;;;;;;;10.53;10.23;;;-2.20;99.90;;;;;;6324554;22;20198;-81
2024/01/28 07:50:32;;;;;;;10.80;10.50;;;-2.10;99.90;;;;;;6324497;22;20262;-81
2024/01/28 07:53:00;;;;;;;10.47;10.17;;;-2.10;99.90;;;;;;6325050;22;20210;-82
2024/01/28 07:55:28;;;;;;;10.87;10.57;;;-2.10;99.90;;;;;;6325244;22;20207;-82
2024/01/28 07:57:56;;;;;;;10.60;10.30;;;-2.00;99.90;;;;;;6327259;22;20290;-81
2024/01/28 08:00:25;;;;;;;10.63;10.33;;;-1.90;99.90;;;;;;6326707;22;20210;-81
2024/01/28 08:02:53;;;;;;;10.43;10.13;;;-1.90;99.90;;;;;;6324883;22;20208;-82
2024/01/28 08:05:20;;;;;;;10.50;10.20;;;-1.70;99.90;;;;;;6325352;22;20192;-81
2024/01/28 08:07:47;;;;;;;10.80;10.50;;;-1.70;99.90;;;;;;6324843;22;20188;-82
2024/01/28 08:10:15;;;;;;;10.43;10.13;;;-1.60;99.90;;;;;;6324859;22;20212;-81
2024/01/28 08:12:44;;;;;;;10.67;10.37;;;-1.50;99.90;;;;;;6325379;22;20216;-80
2024/01/28 08:15:11;;;;;;;10.80;10.50;;;-1.40;99.90;;;;;;6329641;22;20210;-82
2024/01/28 08:17:39;;;;;;;10.80;10.50;;;-1.40;99.90;;;;;;6339450;22;20189;-82
2024/01/28 08:20:08;;;;;;;11.37;10.97;;;-1.30;99.90;;;;;;6337540;22;20200;-82
2024/01/28 08:22:37;;;;;;;10.53;10.23;;;-1.10;99.90;;;;;;6336710;22;20191;-81
2024/01/28 08:25:05;;;;;;;10.40;10.10;;;-0.90;99.90;;;;;;6329640;22;20288;-81
2024/01/28 08:27:33;;;;;;;10.63;10.33;;;-0.80;99.90;;;;;;6329575;22;20248;-81
2024/01/28 08:30:02;;;;;;;10.27;9.97;;;-0.70;99.90;;;;;;6327924;22;20197;-82
2024/01/28 08:32:30;;;;;;;10.67;10.37;;;-0.70;99.90;;;;;;6329010;22;20261;-81
2024/01/28 08:34:57;;;;;;;10.67;10.37;;;-0.60;99.90;;;;;;6327181;22;20203;-82
2024/01/28 08:37:28;;;;;;;10.47;10.17;;;-0.50;99.90;;;;;;6324894;22;20192;-81
2024/01/28 08:39:57;;;;;;;10.40;10.10;;;-0.60;99.90;;;;;;6326186;22;20264;-82
2024/01/28 08:42:25;;;;;;;10.50;10.20;;;-0.50;99.90;;;;;;6328543;22;20196;-82
2024/01/28 08:44:52;;;;;;;10.57;10.27;;;-0.40;99.90;;;;;;6327381;22;20716;-82
2024/01/28 08:47:22;;;;;;;10.57;10.27;;;-0.40;99.90;;;;;;6328480;22;20232;-83
2024/01/28 08:49:50;;;;;;;10.40;10.10;;;-0.20;99.90;;;;;;6326702;22;20210;-82
2024/01/28 08:52:19;;;;;;;10.77;10.47;;;-0.10;99.90;;;;;;6326681;22;20204;-82
2024/01/28 08:54:47;;;;;;;10.57;10.27;;;0.00;99.90;;;;;;6326440;22;20235;-83
2024/01/28 08:57:18;;;;;;;10.97;10.67;;;0.10;99.90;;;;;;6326874;22;20207;-82
2024/01/28 08:59:45;;;;;;;9.97;9.67;;;0.30;99.90;;;;;;6326732;22;20275;-83
2024/01/28 09:02:13;;;;;;;10.10;9.80;;;0.40;99.90;;;;;;6328657;22;20185;-83
2024/01/28 09:04:42;;;;;;;9.70;9.40;;;0.60;99.90;;;;;;6331713;22;20215;-83
2024/01/28 09:07:17;;;;;;;9.67;9.37;;;0.80;99.90;;;;;;6325806;22;20335;-82
2024/01/28 09:09:45;;;;;;;9.60;9.30;;;1.00;99.90;;;;;;6328221;22;20196;-83
2024/01/28 09:12:13;;;;;;;9.90;9.60;;;1.20;99.90;;;;;;6328544;22;20300;-84
2024/01/28 09:14:43;;;;;;;10.00;9.70;;;1.40;99.90;;;;;;6327876;22;20205;-82
2024/01/28 09:17:15;;;;;;;9.47;9.17;;;1.70;99.90;;;;;;6329267;22;20188;-82
2024/01/28 09:19:44;;;;;;;9.83;9.53;;;1.90;99.90;;;;;;6328281;22;20208;-83
2024/01/28 09:22:12;;;;;;;10.03;9.73;;;2.10;99.90;;;;;;6327663;22;20652;-84
2024/01/28 09:24:39;;;;;;;10.37;10.07;;;2.30;99.90;;;;;;6328192;22;20208;-84
2024/01/28 09:27:07;;;;;;;10.00;9.70;;;2.60;99.90;;;;;;6328029;22;20200;-85
2024/01/28 09:29:38;;;;;;;10.27;9.97;;;2.80;99.90;;;;;;6328361;22;20201;-83
2024/01/28 09:32:06;;;;;;;10.30;10.00;;;3.00;99.90;;;;;;6328809;22;20197;-84
2024/01/28 09:34:34;;;;;;;10.17;9.87;;;3.20;99.90;;;;;;6328295;22;20203;-84
2024/01/28 09:37:08;;;;;;;10.00;9.70;;;3.30;99.90;;;;;;6330094;22;20263;-83
2024/01/28 09:39:35;;;;;;;10.33;10.03;;;3.50;99.90;;;;;;6327289;22;20203;-82
2024/01/28 09:42:15;;;;;;;10.20;9.90;;;3.50;99.90;;;;;;6328299;22;20197;-83
2024/01/28 09:45:04;;;;;;;10.30;10.00;;;3.60;99.90;;;;;;6328731;22;20188;-84
2024/01/28 09:47:33;;;;;;;9.77;9.47;;;3.70;99.90;;;;;;6329795;22;20201;-84
2024/01/28 09:50:03;;;;;;;9.60;9.30;;;4.00;99.90;;;;;;6328695;22;20207;-84
2024/01/28 09:52:47;;;;;;;9.37;9.07;;;4.30;99.90;;;;;;6329061;22;20220;-84
2024/01/28 09:55:15;;;;;;;9.70;9.40;;;4.60;99.90;;;;;;6325156;22;20235;-83
2024/01/28 09:57:43;;;;;;;9.37;9.07;;;4.70;99.90;;;;;;6329001;22;20204;-83
2024/01/28 10:00:15;;;;;;;9.73;9.43;;;4.90;99.90;;;;;;6327647;22;20212;-83
2024/01/28 10:02:49;;;;;;;10.07;9.77;;;5.10;99.90;;;;;;6329593;22;20211;-84
2024/01/28 10:05:17;;;;;;;9.73;9.43;;;5.30;99.90;;;;;;6329449;22;20196;-83
2024/01/28 10:07:53;;;;;;;10.00;9.70;;;5.40;99.90;;;;;;6328178;22;20201;-84
2024/01/28 10:10:28;;;;;;;9.60;9.30;;;5.40;99.90;;;;;;6328553;22;20216;-83
2024/01/28 10:12:56;;;;;;;9.60;9.30;;;5.60;99.90;;;;;;6329137;22;20195;-84
2024/01/28 10:15:27;;;;;;;9.50;9.20;;;5.60;99.90;;;;;;6326777;22;20208;-83
2024/01/28 10:17:57;;;;;;;9.53;9.23;;;5.80;99.90;;;;;;6327915;22;20185;-85
2024/01/28 10:20:30;;;;;;;9.60;9.30;;;6.10;99.90;;;;;;6333128;22;20200;-83
2024/01/28 10:23:02;;;;;;;9.60;9.30;;;6.20;99.90;;;;;;6328037;22;20212;-84
2024/01/28 10:25:34;;;;;;;9.80;9.50;;;6.40;99.90;;;;;;6327112;22;20193;-84
2024/01/28 10:28:04;;;;;;;9.80;9.50;;;6.60;99.90;;;;;;6329798;22;20207;-85
2024/01/28 10:30:34;;;;;;;9.70;9.40;;;6.90;99.90;;;;;;6327534;22;20197;-84
2024/01/28 10:33:04;;;;;;;9.90;9.60;;;7.20;99.90;;;;;;6331233;22;20203;-84
2024/01/28 10:35:34;;;;;;;10.07;9.77;;;7.40;99.90;;;;;;6328628;22;20200;-84
2024/01/28 10:38:05;;;;;;;9.70;9.40;;;7.50;99.90;;;;;;6327608;22;20204;-83
2024/01/28 10:40:37;;;;;;;9.70;9.40;;;7.60;99.90;;;;;;6327137;22;20269;-84
2024/01/28 10:43:05;;;;;;;9.93;9.63;;;7.70;99.90;;;;;;6326865;22;20250;-84
2024/01/28 10:45:36;;;;;;;10.10;9.80;;;8.00;99.90;;;;;;6326797;22;20193;-84
2024/01/28 10:48:13;;;;;;;10.10;9.80;;;8.20;99.90;;;;;;6327385;22;20219;-84
2024/01/28 10:50:41;;;;;;;9.77;9.47;;;8.40;99.90;;;;;;6327044;22;20262;-83
2024/01/28 10:53:13;;;;;;;10.10;9.80;;;8.50;99.90;;;;;;6326094;22;20205;-84
2024/01/28 10:55:47;;;;;;;10.10;9.80;;;8.60;99.90;;;;;;6325994;22;20259;-84
2024/01/28 10:58:26;;;;;;;10.10;9.80;;;8.70;99.90;;;;;;6326872;22;20197;-83
2024/01/28 11:00:54;;;;;;;10.17;9.87;;;8.90;99.90;;;;;;6326468;22;20279;-83
2024/01/28 11:03:27;;;;;;;10.10;9.80;;;9.00;99.90;;;;;;6326868;22;20219;-86
2024/01/28 11:05:54;;;;;;;9.83;9.53;;;9.10;99.90;;;;;;6327560;22;20227;-85
2024/01/28 11:08:39;;;;;;;;;;;;;;;;;;;;;
2024/01/28 11:11:22;;;;;;;10.20;9.90;;;9.10;99.90;;;;;;6326663;22;20251;-85
2024/01/28 11:13:53;;;;;;;9.90;9.60;;;9.30;99.90;;;;;;6327215;22;20236;-85
2024/01/28 11:16:24;;;;;;;9.90;9.60;;;9.40;99.90;;;;;;6326334;22;20208;-83
2024/01/28 11:18:58;;;;;;;10.30;10.00;;;9.60;99.90;;;;;;6326630;22;20201;-82
2024/01/28 11:21:26;;;;;;;10.33;10.03;;;9.60;99.90;;;;;;6325978;22;20202;-82
2024/01/28 11:23:56;;;;;;;10.10;9.80;;;9.80;99.90;;;;;;6326504;22;20206;-82
2024/01/28 11:26:28;;;;;;;10.00;9.70;;;9.80;99.90;;;;;;6325735;22;20205;-84
2024/01/28 11:28:56;;;;;;;10.17;9.87;;;10.00;99.90;;;;;;6325806;22;20192;-82
2024/01/28 11:31:32;;;;;;;10.10;9.80;;;10.00;99.90;;;;;;6325642;22;20193;-84
2024/01/28 11:34:14;;;;;;;10.10;9.80;;;10.00;99.90;;;;;;6327351;22;20191;-83
2024/01/28 11:36:45;;;;;;;10.10;9.80;;;10.10;99.90;;;;;;6339314;22;20211;-82
2024/01/28 11:39:16;;;;;;;9.90;9.60;;;10.10;99.90;;;;;;6328149;22;20259;-83
2024/01/28 11:41:45;;;;;;;10.13;9.83;;;10.10;99.90;;;;;;6327835;22;20236;-82
2024/01/28 11:44:15;;;;;;;10.27;9.97;;;9.80;99.90;;;;;;6327753;22;20196;-85
2024/01/28 11:46:43;;;;;;;10.40;10.10;;;9.70;99.90;;;;;;6327687;22;20641;-82
2024/01/28 11:49:10;;;;;;;10.40;10.10;;;9.50;99.90;;;;;;6326245;22;20185;-82
2024/01/28 11:51:38;;;;;;;10.40;10.10;;;9.50;99.90;;;;;;6326195;22;20203;-81
2024/01/28 11:54:06;;;;;;;10.10;9.80;;;9.60;99.90;;;;;;6326740;22;20208;-82
2024/01/28 11:56:35;;;;;;;10.23;9.93;;;9.80;99.90;;;;;;6325699;22;20204;-81
2024/01/28 12:30:40;;;;;;;10.37;10.07;;;10.90;99.90;;;;;;6230393;23;20203;-86
2024/01/28 18:00:47;;;;;;;9.00;8.80;;;5.80;99.90;;;;;;6290549;22;20209;-83
2024/01/28 18:03:14;;;;;;;9.40;9.10;;;5.80;99.90;;;;;;6294483;22;20197;-82
2024/01/28 18:05:42;;;;;;;9.27;8.97;;;5.70;99.90;;;;;;6294249;22;20260;-83
2024/01/28 18:08:10;;;;;;;9.50;9.20;;;5.70;99.90;;;;;;6294303;22;20202;-82
2024/01/28 18:10:37;;;;;;;9.30;9.00;;;5.60;99.90;;;;;;6314824;22;20215;-82
2024/01/28 18:13:04;;;;;;;9.60;9.30;;;5.70;99.90;;;;;;6336421;22;20184;-82
2024/01/28 18:15:32;;;;;;;9.30;9.00;;;5.60;99.90;;;;;;6336631;22;20195;-82
2024/01/28 18:18:02;;;;;;;9.53;9.23;;;5.60;99.90;;;;;;6336339;22;20196;-83
2024/01/28 18:20:29;;;;;;;9.60;9.30;;;5.50;99.90;;;;;;6331554;22;20204;-83
2024/01/28 18:22:57;;;;;;;9.33;9.03;;;5.50;99.90;;;;;;6326924;22;20193;-80
2024/01/28 18:25:27;;;;;;;9.40;9.10;;;5.40;99.90;;;;;;6327237;22;20216;-81
2024/01/28 18:27:54;;;;;;;9.57;9.27;;;5.40;99.90;;;;;;6336883;22;20240;-81
2024/01/28 18:30:21;;;;;;;9.80;9.50;;;5.30;99.90;;;;;;6328282;22;20275;-81
2024/01/28 18:32:49;;;;;;;9.70;9.40;;;5.30;99.90;;;;;;6327501;22;20223;-82
2024/01/28 18:35:17;;;;;;;9.43;9.13;;;5.20;99.90;;;;;;6327257;22;20185;-82
2024/01/28 18:37:45;;;;;;;9.50;9.20;;;5.10;99.90;;;;;;6326824;22;20193;-81
2024/01/28 18:40:14;;;;;;;9.50;9.20;;;5.10;99.90;;;;;;6326564;22;20209;-81
2024/01/28 18:42:41;;;;;;;9.60;9.30;;;5.00;99.90;;;;;;6326580;22;20193;-81
2024/01/28 18:45:09;;;;;;;9.50;9.20;;;4.90;99.90;;;;;;6326380;22;20227;-81
2024/01/28 18:47:36;;;;;;;9.43;9.13;;;4.90;99.90;;;;;;6329469;22;20197;-82
2024/01/28 18:50:04;;;;;;;9.30;9.00;;;4.90;99.90;;;;;;6326510;22;20189;-81
2024/01/28 18:52:36;;;;;;;9.47;9.17;;;5.00;99.90;;;;;;6327251;22;20197;-83
2024/01/28 18:55:04;;;;;;;9.60;9.30;;;5.00;99.90;;;;;;6327470;22;20199;-83
2024/01/28 18:57:32;;;;;;;9.63;9.33;;;4.90;99.90;;;;;;6326131;22;20264;-80
2024/01/28 18:59:59;;;;;;;9.53;9.23;;;5.00;99.90;;;;;;6324782;22;20241;-81
2024/01/28 19:02:26;;;;;;;9.10;8.90;;;4.90;99.90;;;;;;6326246;22;20197;-80
2024/01/28 19:04:53;;;;;;;9.23;8.93;;;4.90;99.90;;;;;;6325136;22;20205;-81
2024/01/28 19:07:21;;;;;;;9.20;8.90;;;4.90;99.90;;;;;;6326674;22;20224;-81
2024/01/28 19:09:49;;;;;;;8.90;8.70;;;4.90;99.90;;;;;;6328088;22;20188;-81
2024/01/28 19:12:17;;;;;;;9.20;8.90;;;4.80;99.90;;;;;;6327542;22;20251;-82
2024/01/28 19:14:44;;;;;;;9.27;8.97;;;4.80;99.90;;;;;;6326637;22;20224;-83
2024/01/28 19:17:11;;;;;;;9.40;9.10;;;4.70;99.90;;;;;;6326561;22;20205;-81
2024/01/28 19:19:39;;;;;;;9.40;9.10;;;4.70;99.90;;;;;;6325852;22;20205;-81
2024/01/28 19:22:06;;;;;;;9.60;9.30;;;4.60;99.90;;;;;;6326199;22;20193;-81
2024/01/28 19:24:33;;;;;;;9.23;8.93;;;4.50;99.90;;;;;;6327079;22;20197;-81
2024/01/28 19:27:02;;;;;;;9.40;9.10;;;4.40;99.90;;;;;;6325282;22;20215;-81
2024/01/28 19:29:30;;;;;;;9.50;9.20;;;4.20;99.90;;;;;;6326535;22;20188;-81
2024/01/28 19:31:58;;;;;;;9.53;9.23;;;4.10;99.90;;;;;;6325994;22;20259;-81
2024/01/28 19:34:25;;;;;;;9.53;9.23;;;3.90;99.90;;;;;;6326747;22;20193;-81
2024/01/28 19:36:52;;;;;;;9.37;9.07;;;3.80;99.90;;;;;;6326178;22;20197;-82
2024/01/28 19:39:23;;;;;;;9.87;9.57;;;3.70;99.90;;;;;;6327182;22;20201;-82
2024/01/28 19:41:51;;;;;;;9.40;9.10;;;3.70;99.90;;;;;;6323358;22;20363;-80
2024/01/28 19:44:19;;;;;;;9.07;8.80;;;3.70;99.90;;;;;;6323816;22;20193;-80
2024/01/28 19:46:47;;;;;;;9.57;9.27;;;3.70;99.90;;;;;;6322533;22;20215;-80
2024/01/28 19:49:14;;;;;;;9.43;9.13;;;3.70;99.90;;;;;;6323621;22;20204;-79
2024/01/28 19:51:42;;;;;;;9.30;9.00;;;3.70;99.90;;;;;;6323232;22;20247;-79
2024/01/28 19:54:09;;;;;;;9.53;9.23;;;3.60;99.90;;;;;;6323979;22;20192;-79
2024/01/28 19:56:36;;;;;;;9.03;8.77;;;3.60;99.90;;;;;;6323431;22;20196;-79
2024/01/28 19:59:04;;;;;;;9.50;9.20;;;3.50;99.90;;;;;;6323862;22;20208;-80
2024/01/28 20:01:34;;;;;;;9.33;9.03;;;3.50;99.90;;;;;;6323774;22;20258;-81
2024/01/28 20:04:01;;;;;;;9.30;9.00;;;3.40;99.90;;;;;;6324065;22;20193;-80
2024/01/28 20:06:29;;;;;;;9.43;9.13;;;3.40;99.90;;;;;;6323690;22;20231;-79
2024/01/28 20:08:56;;;;;;;9.60;9.30;;;3.30;99.90;;;;;;6340552;22;20188;-79
2024/01/28 20:11:24;;;;;;;9.47;9.17;;;3.30;99.90;;;;;;6333901;22;20220;-81
2024/01/28 20:13:51;;;;;;;9.63;9.33;;;3.30;99.90;;;;;;6325397;22;20200;-79
2024/01/28 20:16:19;;;;;;;9.47;9.17;;;3.10;99.90;;;;;;6323458;22;20196;-80
2024/01/28 20:18:48;;;;;;;9.40;9.10;;;3.20;99.90;;;;;;6324955;22;20197;-80
2024/01/28 20:21:15;;;;;;;9.27;8.97;;;3.10;99.90;;;;;;6324805;22;20205;-80
2024/01/28 20:23:42;;;;;;;9.50;9.20;;;3.10;99.90;;;;;;6323967;22;20242;-81
2024/01/28 20:26:10;;;;;;;9.40;9.10;;;3.10;99.90;;;;;;6323577;22;20205;-81
2024/01/28 20:28:37;;;;;;;9.37;9.07;;;3.10;99.90;;;;;;6328982;22;20278;-81
2024/01/28 20:31:04;;;;;;;9.67;9.37;;;3.00;99.90;;;;;;6324602;22;20200;-80
2024/01/28 20:33:32;;;;;;;9.63;9.33;;;2.90;99.90;;;;;;6326496;22;20220;-82
2024/01/28 20:36:01;;;;;;;9.23;8.93;;;2.90;99.90;;;;;;6325057;22;20192;-82
2024/01/28 20:38:28;;;;;;;9.43;9.13;;;2.90;99.90;;;;;;6325395;22;20203;-80
2024/01/28 20:40:55;;;;;;;9.43;9.13;;;2.80;99.90;;;;;;6327568;22;20196;-80
2024/01/28 20:43:22;;;;;;;9.50;9.20;;;2.80;99.90;;;;;;6326805;22;20212;-81
2024/01/28 20:45:50;;;;;;;9.13;8.83;;;2.80;99.90;;;;;;6326293;22;20193;-80
2024/01/28 20:48:17;;;;;;;9.40;9.10;;;2.80;99.90;;;;;;6326995;22;20212;-81
2024/01/28 20:50:44;;;;;;;9.40;9.10;;;2.70;99.90;;;;;;6325571;22;20217;-81
2024/01/28 20:53:13;;;;;;;9.20;8.90;;;2.70;99.90;;;;;;6325603;22;20197;-82
2024/01/28 20:55:41;;;;;;;8.90;8.70;;;2.60;99.90;;;;;;6324099;22;20192;-81
2024/01/28 20:58:09;;;;;;;9.20;8.90;;;2.60;99.90;;;;;;6324349;22;20197;-82
2024/01/28 21:00:37;;;;;;;9.27;8.97;;;2.50;99.90;;;;;;6325346;22;20211;-81
2024/01/28 21:03:05;;;;;;;9.37;9.07;;;2.50;99.90;;;;;;6325183;22;20200;-81
2024/01/28 21:05:33;;;;;;;9.33;9.03;;;2.40;99.90;;;;;;6325157;22;20212;-81
2024/01/28 21:08:00;;;;;;;9.23;8.93;;;2.40;99.90;;;;;;6324416;22;20200;-81
2024/01/28 21:10:29;;;;;;;9.00;8.80;;;2.30;99.90;;;;;;6324338;22;20197;-81
2024/01/28 21:12:56;;;;;;;9.27;8.97;;;2.30;99.90;;;;;;6324292;22;20196;-81
2024/01/28 21:15:24;;;;;;;9.40;9.10;;;2.30;99.90;;;;;;6323804;22;20193;-80
2024/01/28 21:17:54;;;;;;;9.30;9.00;;;2.30;99.90;;;;;;6325382;22;20263;-81
2024/01/28 21:20:22;;;;;;;9.43;9.13;;;2.30;99.90;;;;;;6324982;22;20335;-80
2024/01/28 21:22:49;;;;;;;9.40;9.10;;;2.30;99.90;;;;;;6324837;22;20248;-82
2024/01/28 21:25:16;;;;;;;9.30;9.00;;;2.30;99.90;;;;;;6325947;22;20196;-80
2024/01/28 21:27:47;;;;;;;9.33;9.03;;;2.30;99.90;;;;;;6326523;22;20193;-81
2024/01/28 21:30:15;;;;;;;9.43;9.13;;;2.30;99.90;;;;;;6324484;22;20212;-82
2024/01/28 21:32:42;;;;;;;9.40;9.10;;;2.30;99.90;;;;;;6325341;22;20220;-82
2024/01/28 21:35:10;;;;;;;9.43;9.13;;;2.30;99.90;;;;;;6325075;22;20196;-81
2024/01/28 21:37:37;;;;;;;9.40;9.10;;;2.20;99.90;;;;;;6324805;22;20181;-80
2024/01/28 21:40:07;;;;;;;9.53;9.23;;;2.10;99.90;;;;;;6324339;22;20193;-80
2024/01/28 21:42:34;;;;;;;9.80;9.50;;;2.00;99.90;;;;;;6324963;22;20199;-81
2024/01/28 21:45:03;;;;;;;9.73;9.43;;;1.90;99.90;;;;;;6324479;22;20200;-80
2024/01/28 21:47:30;;;;;;;9.33;9.03;;;1.90;99.90;;;;;;6324856;22;20726;-81
2024/01/28 21:49:58;;;;;;;9.50;9.20;;;1.90;99.90;;;;;;6325250;22;20201;-80
2024/01/28 21:52:26;;;;;;;9.50;9.20;;;1.90;99.90;;;;;;6325443;22;20236;-81
2024/01/28 21:54:53;;;;;;;9.90;9.60;;;1.90;99.90;;;;;;6324527;22;20205;-79
2024/01/28 21:57:21;;;;;;;9.90;9.60;;;1.90;99.90;;;;;;6324462;22;20262;-81
2024/01/28 21:59:48;;;;;;;9.80;9.50;;;1.90;99.90;;;;;;6323874;22;20197;-81
2024/01/28 22:02:17;;;;;;;9.40;9.10;;;1.90;99.90;;;;;;6324073;22;20184;-81
2024/01/28 22:04:44;;;;;;;9.60;9.30;;;1.90;99.90;;;;;;6325498;22;20189;-81
2024/01/28 22:07:12;;;;;;;9.70;9.40;;;1.90;99.90;;;;;;6327485;22;20258;-80
2024/01/28 22:09:39;;;;;;;9.40;9.10;;;1.90;99.90;;;;;;6326864;22;20197;-81
2024/01/28 22:12:07;;;;;;;9.50;9.20;;;1.90;99.90;;;;;;6325290;22;20271;-80
2024/01/28 22:14:35;;;;;;;9.53;9.23;;;1.90;99.90;;;;;;6324406;22;20232;-80
2024/01/28 22:17:04;;;;;;;9.37;9.07;;;1.80;99.90;;;;;;6325762;22;20259;-80
2024/01/28 22:19:33;;;;;;;9.27;8.97;;;1.80;99.90;;;;;;6324773;22;20193;-80
2024/01/28 22:22:01;;;;;;;9.60;9.30;;;1.80;99.90;;;;;;6325727;22;20197;-80
2024/01/28 22:24:28;;;;;;;9.80;9.50;;;1.80;99.90;;;;;;6323708;22;20201;-80
2024/01/28 22:26:56;;;;;;;9.70;9.40;;;1.70;99.90;;;;;;6323420;22;20243;-81
2024/01/28 22:29:23;;;;;;;9.90;9.60;;;1.80;99.90;;;;;;6323447;22;20193;-82
2024/01/28 22:31:51;;;;;;;9.87;9.57;;;1.70;99.90;;;;;;6324564;22;20224;-80
2024/01/28 22:34:19;;;;;;;10.13;9.83;;;1.70;99.90;;;;;;6324445;22;20193;-81
2024/01/28 22:36:47;;;;;;;10.00;9.70;;;1.60;99.90;;;;;;6325087;22;20192;-81
2024/01/28 22:39:15;;;;;;;10.30;10.00;;;1.60;99.90;;;;;;6325032;22;20200;-79
2024/01/28 22:41:42;;;;;;;10.23;9.93;;;1.50;99.90;;;;;;6324521;22;20208;-81
2024/01/28 22:44:09;;;;;;;10.10;9.80;;;1.50;99.90;;;;;;6324740;22;20188;-80
2024/01/28 22:46:37;;;;;;;10.20;9.90;;;1.50;99.90;;;;;;6325132;22;20204;-80
2024/01/28 22:49:05;;;;;;;10.30;10.00;;;1.40;99.90;;;;;;6324413;22;20205;-80
2024/01/28 22:51:32;;;;;;;10.13;9.83;;;1.40;99.90;;;;;;6324330;22;20207;-82
2024/01/28 22:54:02;;;;;;;10.40;10.10;;;1.30;99.90;;;;;;6325522;22;20208;-80
2024/01/28 22:56:29;;;;;;;9.90;9.60;;;1.30;99.90;;;;;;6325502;22;20211;-80
2024/01/28 22:58:57;;;;;;;10.30;10.00;;;1.30;99.90;;;;;;6336083;22;20260;-79
2024/01/28 23:01:24;;;;;;;10.30;10.00;;;1.20;99.90;;;;;;6335084;22;20201;-79
2024/01/28 23:03:51;;;;;;;10.30;10.00;;;1.20;99.90;;;;;;6337167;22;20189;-80
2024/01/28 23:06:22;;;;;;;10.20;9.90;;;1.10;99.90;;;;;;6331652;22;20201;-80
2024/01/28 23:08:49;;;;;;;10.40;10.10;;;1.10;99.90;;;;;;6326932;22;20185;-80
2024/01/28 23:11:18;;;;;;;10.53;10.23;;;1.10;99.90;;;;;;6327027;22;20234;-81
2024/01/28 23:13:46;;;;;;;10.17;9.87;;;1.10;99.90;;;;;;6328259;22;20287;-80
2024/01/28 23:16:13;;;;;;;10.20;9.90;;;1.10;99.90;;;;;;6327539;22;20185;-80
2024/01/28 23:18:40;;;;;;;10.17;9.87;;;1.00;99.90;;;;;;6329738;22;20199;-79
2024/01/28 23:21:08;;;;;;;10.53;10.23;;;1.00;99.90;;;;;;6326855;22;20294;-81
2024/01/28 23:23:37;;;;;;;10.50;10.20;;;1.00;99.90;;;;;;6327147;22;20189;-82
2024/01/28 23:26:05;;;;;;;10.53;10.23;;;0.90;99.90;;;;;;6327091;22;20192;-79
2024/01/28 23:28:34;;;;;;;10.90;10.60;;;0.90;99.90;;;;;;6326915;22;20204;-80
2024/01/28 23:31:03;;;;;;;10.80;10.50;;;0.80;99.90;;;;;;6325906;22;20247;-81
2024/01/28 23:33:30;;;;;;;10.90;10.60;;;0.80;99.90;;;;;;6329347;22;20200;-81
2024/01/28 23:35:58;;;;;;;10.97;10.67;;;0.70;99.90;;;;;;6332050;22;20193;-81
2024/01/28 23:38:25;;;;;;;10.80;10.50;;;0.60;99.90;;;;;;6331909;22;20199;-83
2024/01/28 23:40:52;;;;;;;10.70;10.40;;;0.50;99.90;;;;;;6328466;22;20196;-81
2024/01/28 23:43:19;;;;;;;10.80;10.50;;;0.50;99.90;;;;;;6327457;22;20189;-80
2024/01/28 23:45:48;;;;;;;11.00;10.70;;;0.50;99.90;;;;;;6326311;22;20185;-81